Time;durP1;ratioP1;P1;durP2;ratioP2;P2;SDS_P1;SDS_P2;PMS_P1;PMS_P2;Temp;Humidity;BMP_temperature;BMP_pressure;BME280_temperature;BME280_humidity;BME280_pressure;Samples;Min_cycle;Max_cycle;Signal;HPM_P1;HPM_P2
2023/06/06 00:00:09;;;;;;;3.93;3.53;;;17.80;72.30;;;;;;5002583;28;20552;-73
2023/06/06 00:02:40;;;;;;;5.83;3.87;;;17.70;72.40;;;;;;5003789;28;20489;-72
2023/06/06 00:05:07;;;;;;;6.20;3.43;;;17.70;72.30;;;;;;5010699;28;20464;-72
2023/06/06 00:07:35;;;;;;;6.00;3.33;;;17.70;72.10;;;;;;5013328;28;20417;-73
2023/06/06 00:10:03;;;;;;;6.90;4.30;;;17.60;72.30;;;;;;5005955;28;20464;-73
2023/06/06 00:12:32;;;;;;;6.03;4.03;;;17.60;72.30;;;;;;5012792;28;20418;-72
2023/06/06 00:14:59;;;;;;;6.13;3.77;;;17.60;72.30;;;;;;5012204;28;20447;-72
2023/06/06 00:17:25;;;;;;;5.60;3.97;;;17.50;72.40;;;;;;5011310;28;20430;-72
2023/06/06 00:19:52;;;;;;;5.70;3.87;;;17.50;72.40;;;;;;5009494;28;20951;-74
2023/06/06 00:22:22;;;;;;;7.10;3.70;;;17.50;72.10;;;;;;5010945;28;20433;-72
2023/06/06 00:24:48;;;;;;;4.70;3.10;;;17.50;72.10;;;;;;5007821;28;20423;-72
2023/06/06 00:27:14;;;;;;;4.20;2.90;;;17.50;72.00;;;;;;5009345;28;20425;-72
2023/06/06 00:29:39;;;;;;;6.80;3.70;;;17.50;72.00;;;;;;5003682;28;20463;-76
2023/06/06 00:32:05;;;;;;;6.87;3.60;;;17.50;71.80;;;;;;5002297;28;20183;-72
2023/06/06 00:34:31;;;;;;;4.00;3.00;;;17.50;71.80;;;;;;5007990;28;20199;-72
2023/06/06 00:36:56;;;;;;;5.53;3.57;;;17.40;71.70;;;;;;5006806;28;20260;-70
2023/06/06 00:39:22;;;;;;;5.20;3.13;;;17.40;71.70;;;;;;5008334;28;20193;-72
2023/06/06 00:41:48;;;;;;;5.60;3.53;;;17.30;71.80;;;;;;5003135;28;20299;-71
2023/06/06 00:44:14;;;;;;;6.37;3.53;;;17.20;72.00;;;;;;5007325;28;20527;-71
2023/06/06 00:46:40;;;;;;;5.03;3.70;;;17.20;72.40;;;;;;5009342;28;20466;-72
2023/06/06 00:49:12;;;;;;;5.03;3.50;;;17.10;72.60;;;;;;5006129;28;21289;-71
2023/06/06 00:51:40;;;;;;;5.10;3.60;;;17.00;72.60;;;;;;5001682;28;20224;-73
2023/06/06 00:54:07;;;;;;;6.17;3.30;;;17.00;72.90;;;;;;5006825;28;20427;-72
2023/06/06 00:56:36;;;;;;;5.00;3.50;;;16.90;73.00;;;;;;5010799;28;20456;-71
2023/06/06 00:59:03;;;;;;;4.87;3.10;;;16.90;73.00;;;;;;5006012;28;20430;-71
2023/06/06 01:01:33;;;;;;;5.13;3.37;;;16.90;73.00;;;;;;5006122;28;20530;-73
2023/06/06 01:04:01;;;;;;;5.90;3.47;;;16.90;73.30;;;;;;5010992;28;20439;-74
2023/06/06 01:06:27;;;;;;;6.70;3.60;;;16.80;73.30;;;;;;5009687;28;20535;-72
2023/06/06 01:08:52;;;;;;;5.30;3.63;;;16.80;73.30;;;;;;5010697;28;20418;-73
2023/06/06 01:11:32;;;;;;;6.10;3.20;;;16.80;73.30;;;;;;5006630;28;20799;-71
2023/06/06 01:14:19;;;;;;;5.00;3.40;;;16.60;73.60;;;;;;5009713;28;20272;-70
2023/06/06 01:16:52;;;;;;;4.43;3.50;;;16.50;73.90;;;;;;5001649;28;20428;-74
2023/06/06 01:19:20;;;;;;;6.13;3.87;;;16.50;74.20;;;;;;5008900;28;20424;-73
2023/06/06 01:21:46;;;;;;;4.80;3.47;;;16.50;74.50;;;;;;5007439;28;20456;-75
2023/06/06 01:24:12;;;;;;;5.80;4.20;;;16.50;74.60;;;;;;5007915;28;20451;-74
2023/06/06 01:26:38;;;;;;;4.40;3.13;;;16.50;74.30;;;;;;5009977;28;20692;-74
2023/06/06 01:29:03;;;;;;;6.77;3.97;;;16.50;74.30;;;;;;5007849;28;20809;-74
2023/06/06 01:31:39;;;;;;;5.10;3.50;;;16.50;74.30;;;;;;5006293;28;20214;-73
2023/06/06 01:34:09;;;;;;;5.13;3.63;;;16.50;74.30;;;;;;5012937;28;20174;-73
2023/06/06 01:36:48;;;;;;;5.13;3.47;;;16.40;74.30;;;;;;5009162;28;20432;-74
2023/06/06 01:39:17;;;;;;;7.63;3.33;;;16.40;74.50;;;;;;5015282;28;20453;-72
2023/06/06 01:41:46;;;;;;;10.50;3.80;;;16.40;74.50;;;;;;5004841;28;20457;-72
2023/06/06 01:44:13;;;;;;;7.40;4.07;;;16.30;74.60;;;;;;5012135;28;20412;-72
2023/06/06 01:46:40;;;;;;;5.90;3.90;;;16.30;74.60;;;;;;5016827;28;20461;-74
2023/06/06 01:49:07;;;;;;;5.07;3.40;;;16.20;74.60;;;;;;5017045;28;20408;-73
2023/06/06 01:51:33;;;;;;;6.97;3.60;;;16.20;74.80;;;;;;5010142;28;20456;-75
2023/06/06 01:53:59;;;;;;;5.17;3.23;;;16.10;75.10;;;;;;5005599;28;20424;-72
2023/06/06 01:56:25;;;;;;;5.80;3.90;;;16.20;75.10;;;;;;5008524;28;20193;-73
2023/06/06 01:58:52;;;;;;;6.07;3.30;;;16.10;75.20;;;;;;5009281;28;20420;-72
2023/06/06 02:01:17;;;;;;;6.67;3.97;;;16.10;75.20;;;;;;5003882;28;20475;-72
2023/06/06 02:03:43;;;;;;;5.50;3.43;;;16.10;75.10;;;;;;5006901;28;20425;-74
2023/06/06 02:06:09;;;;;;;7.50;4.10;;;16.10;75.20;;;;;;5007732;28;20316;-71
2023/06/06 02:08:34;;;;;;;8.00;3.60;;;16.00;75.40;;;;;;5008735;28;20217;-71
2023/06/06 02:11:00;;;;;;;7.80;4.10;;;16.00;75.50;;;;;;5004113;28;20593;-73
2023/06/06 02:13:26;;;;;;;4.90;3.63;;;15.90;75.70;;;;;;5007272;28;20193;-72
2023/06/06 02:15:52;;;;;;;7.30;4.57;;;16.00;75.90;;;;;;5005095;28;20211;-72
2023/06/06 02:18:17;;;;;;;6.63;3.93;;;15.90;75.90;;;;;;5008004;28;20190;-73
2023/06/06 02:20:43;;;;;;;5.60;3.70;;;15.90;76.10;;;;;;5006171;28;20200;-71
2023/06/06 02:23:08;;;;;;;7.03;4.13;;;15.80;76.20;;;;;;5005273;28;20181;-72
2023/06/06 02:25:37;;;;;;;5.73;4.00;;;15.70;76.70;;;;;;5005938;28;20213;-71
2023/06/06 02:28:03;;;;;;;5.93;3.70;;;15.70;77.00;;;;;;5003470;28;20178;-72
2023/06/06 02:30:30;;;;;;;8.93;4.30;;;15.60;77.10;;;;;;5003930;28;20463;-71
2023/06/06 02:32:56;;;;;;;6.87;4.00;;;15.60;77.10;;;;;;5003880;28;20417;-72
2023/06/06 02:35:22;;;;;;;6.43;3.87;;;15.60;77.30;;;;;;5006293;28;20439;-72
2023/06/06 02:37:48;;;;;;;4.33;3.70;;;15.60;77.40;;;;;;5009902;28;20454;-71
2023/06/06 02:40:14;;;;;;;5.67;4.03;;;15.60;77.60;;;;;;5006792;28;20465;-72
2023/06/06 02:42:39;;;;;;;6.60;3.80;;;15.60;77.70;;;;;;5009421;28;20636;-72
2023/06/06 02:45:09;;;;;;;7.10;4.40;;;15.50;77.80;;;;;;5008685;28;20460;-73
2023/06/06 02:47:36;;;;;;;5.30;3.57;;;15.50;78.00;;;;;;5006962;28;20257;-72
2023/06/06 02:50:03;;;;;;;5.60;4.03;;;15.40;78.30;;;;;;5005890;28;20465;-74
2023/06/06 02:52:28;;;;;;;10.13;4.67;;;15.40;78.60;;;;;;5007527;28;20474;-72
2023/06/06 02:54:54;;;;;;;9.17;4.67;;;15.40;78.60;;;;;;5012689;28;20413;-71
2023/06/06 02:57:21;;;;;;;6.80;4.03;;;15.40;78.60;;;;;;5009892;28;20182;-72
2023/06/06 02:59:47;;;;;;;5.10;3.60;;;15.40;79.00;;;;;;5011413;28;20926;-73
2023/06/06 03:02:15;;;;;;;8.13;4.40;;;15.40;79.20;;;;;;5006253;28;20444;-72
2023/06/06 03:04:43;;;;;;;6.13;3.97;;;15.40;79.20;;;;;;5007637;28;20475;-72
2023/06/06 03:07:10;;;;;;;7.17;4.53;;;15.30;79.50;;;;;;5006823;28;20475;-72
2023/06/06 03:09:36;;;;;;;7.37;4.70;;;15.30;79.70;;;;;;5006341;28;20430;-72
2023/06/06 03:12:01;;;;;;;7.80;5.00;;;15.20;80.00;;;;;;5005512;28;21868;-72
2023/06/06 03:14:27;;;;;;;5.90;4.07;;;15.20;80.30;;;;;;5009626;28;20419;-73
2023/06/06 03:16:55;;;;;;;6.63;4.13;;;15.30;80.30;;;;;;5005139;28;20700;-72
2023/06/06 03:19:21;;;;;;;5.70;4.37;;;15.30;80.30;;;;;;5009489;28;20660;-71
2023/06/06 03:21:46;;;;;;;6.27;3.97;;;15.20;80.60;;;;;;5003932;28;20467;-72
2023/06/06 03:24:13;;;;;;;8.10;4.90;;;15.30;80.90;;;;;;5014554;28;20429;-72
2023/06/06 03:26:39;;;;;;;7.13;4.53;;;15.20;80.80;;;;;;5010176;28;20198;-73
2023/06/06 03:29:05;;;;;;;6.70;4.60;;;15.10;81.20;;;;;;5017802;28;20804;-73
2023/06/06 03:31:31;;;;;;;5.20;4.33;;;15.10;81.20;;;;;;5011163;28;20983;-72
2023/06/06 03:33:57;;;;;;;5.43;4.17;;;15.10;81.50;;;;;;5015060;28;20508;-73
2023/06/06 03:36:23;;;;;;;8.60;4.93;;;15.10;81.50;;;;;;5011651;28;20520;-71
2023/06/06 03:38:48;;;;;;;9.27;4.63;;;15.10;81.70;;;;;;5013216;28;20917;-72
2023/06/06 03:41:14;;;;;;;8.23;4.70;;;15.10;81.70;;;;;;5008648;28;20598;-72
2023/06/06 03:43:42;;;;;;;11.60;5.20;;;15.10;81.50;;;;;;5016277;28;20186;-73
2023/06/06 03:46:07;;;;;;;8.77;4.67;;;15.20;81.20;;;;;;5017525;28;20202;-71
2023/06/06 03:48:33;;;;;;;6.10;4.27;;;15.10;81.20;;;;;;5018081;28;20998;-73
2023/06/06 03:50:58;;;;;;;6.60;4.00;;;15.10;81.20;;;;;;5014641;28;20240;-72
2023/06/06 03:53:24;;;;;;;5.80;4.50;;;15.10;80.90;;;;;;5019370;28;20192;-73
2023/06/06 03:55:49;;;;;;;6.00;4.30;;;15.10;80.90;;;;;;5023023;28;20230;-72
2023/06/06 03:58:15;;;;;;;8.43;4.47;;;15.20;80.80;;;;;;5017297;28;20771;-71
2023/06/06 04:00:42;;;;;;;5.50;4.47;;;15.20;80.30;;;;;;5018087;28;20560;-74
2023/06/06 04:03:08;;;;;;;14.17;5.10;;;15.30;80.00;;;;;;5016021;28;20196;-71
2023/06/06 04:05:34;;;;;;;5.90;4.30;;;15.30;79.90;;;;;;5009220;28;20462;-72
2023/06/06 04:08:00;;;;;;;7.37;4.50;;;15.20;79.60;;;;;;5009050;28;20761;-71
2023/06/06 04:10:26;;;;;;;9.13;4.33;;;15.20;79.50;;;;;;5010839;28;20467;-71
2023/06/06 04:12:52;;;;;;;6.43;4.53;;;15.20;79.30;;;;;;5016479;28;20189;-72
2023/06/06 04:15:17;;;;;;;7.97;5.13;;;15.30;78.70;;;;;;5012337;28;20197;-72
2023/06/06 04:17:43;;;;;;;6.40;4.00;;;15.20;78.40;;;;;;5018141;28;20674;-74
2023/06/06 04:20:09;;;;;;;7.53;4.10;;;15.20;78.30;;;;;;5015797;28;20212;-73
2023/06/06 04:22:36;;;;;;;6.97;4.57;;;15.20;78.40;;;;;;5018001;28;20249;-73
2023/06/06 04:25:01;;;;;;;7.53;4.80;;;15.20;78.40;;;;;;5020699;28;20450;-73
2023/06/06 04:27:28;;;;;;;7.07;4.53;;;15.30;78.30;;;;;;5017406;28;20430;-74
2023/06/06 04:29:57;;;;;;;7.13;4.50;;;15.30;78.00;;;;;;5010250;28;20207;-72
2023/06/06 04:32:23;;;;;;;10.23;4.60;;;15.40;77.70;;;;;;5010711;28;20568;-73
2023/06/06 04:34:51;;;;;;;6.53;4.30;;;15.50;77.40;;;;;;5009095;28;20509;-72
2023/06/06 04:37:18;;;;;;;7.57;5.03;;;15.50;77.30;;;;;;5009039;28;20240;-74
2023/06/06 04:39:43;;;;;;;12.60;4.70;;;15.50;77.30;;;;;;5007525;28;20662;-74
2023/06/06 04:42:09;;;;;;;9.30;4.57;;;15.60;77.10;;;;;;5004095;28;20581;-72
2023/06/06 04:44:46;;;;;;;7.20;4.37;;;15.70;77.00;;;;;;5005715;28;20194;-73
2023/06/06 04:47:12;;;;;;;6.80;4.67;;;15.70;77.30;;;;;;5006855;28;20597;-71
2023/06/06 04:49:39;;;;;;;7.27;4.37;;;15.80;77.10;;;;;;5003814;28;20417;-79
2023/06/06 04:52:11;;;;;;;6.70;5.20;;;15.80;77.00;;;;;;5002830;28;20445;-73
2023/06/06 04:54:39;;;;;;;8.80;5.40;;;15.90;77.40;;;;;;5002439;28;20540;-74
2023/06/06 04:57:09;;;;;;;11.67;5.30;;;15.90;77.60;;;;;;5010183;28;20531;-75
2023/06/06 04:59:37;;;;;;;9.63;5.63;;;15.90;77.80;;;;;;5007314;28;20421;-72
2023/06/06 05:02:03;;;;;;;10.07;5.70;;;16.10;77.80;;;;;;5001970;28;20448;-73
2023/06/06 05:04:31;;;;;;;13.23;6.30;;;16.20;77.60;;;;;;5009409;28;20424;-74
2023/06/06 05:06:57;;;;;;;10.97;5.60;;;16.30;77.40;;;;;;5008524;28;20475;-74
2023/06/06 05:09:23;;;;;;;9.27;6.13;;;16.40;77.00;;;;;;5008575;28;20443;-72
2023/06/06 05:11:51;;;;;;;10.47;6.40;;;16.50;76.40;;;;;;5007672;28;20467;-73
2023/06/06 05:14:17;;;;;;;11.70;6.57;;;16.60;75.90;;;;;;5011374;28;20181;-73
2023/06/06 05:16:46;;;;;;;10.23;6.67;;;16.70;75.40;;;;;;5009123;28;20440;-73
2023/06/06 05:19:15;;;;;;;9.97;5.90;;;16.80;74.80;;;;;;5010627;28;21010;-72
2023/06/06 05:21:41;;;;;;;7.83;5.37;;;16.90;74.20;;;;;;5007677;28;20899;-71
2023/06/06 05:24:07;;;;;;;9.63;6.10;;;17.00;73.60;;;;;;5009770;28;20463;-74
2023/06/06 05:26:32;;;;;;;10.27;5.43;;;17.10;72.30;;;;;;5007834;28;20219;-73
2023/06/06 05:28:58;;;;;;;9.63;5.80;;;17.10;71.80;;;;;;5009596;28;20298;-72
2023/06/06 05:31:25;;;;;;;10.53;6.00;;;17.10;71.80;;;;;;4998785;28;20253;-71
2023/06/06 05:33:50;;;;;;;10.40;6.07;;;17.20;71.80;;;;;;5006803;28;20844;-71
2023/06/06 05:36:16;;;;;;;10.60;6.70;;;17.20;71.70;;;;;;5005989;28;20424;-73
2023/06/06 05:38:41;;;;;;;15.03;6.40;;;17.30;71.10;;;;;;5010472;28;20330;-73
2023/06/06 05:41:07;;;;;;;8.90;6.20;;;17.40;70.70;;;;;;5002006;28;20209;-71
2023/06/06 05:43:33;;;;;;;7.80;5.83;;;17.40;70.40;;;;;;5012602;28;20189;-72
2023/06/06 05:46:00;;;;;;;12.10;6.23;;;17.20;70.20;;;;;;5008333;28;20226;-72
2023/06/06 05:48:26;;;;;;;8.20;5.47;;;17.20;70.40;;;;;;5013872;28;20710;-75
2023/06/06 05:50:51;;;;;;;8.50;5.40;;;17.30;69.80;;;;;;5002841;28;20484;-73
2023/06/06 05:53:17;;;;;;;10.17;5.20;;;17.20;69.90;;;;;;5007021;28;20186;-72
2023/06/06 05:55:43;;;;;;;9.83;5.70;;;17.30;69.80;;;;;;5004558;28;20196;-73
2023/06/06 05:58:08;;;;;;;7.03;5.70;;;17.40;69.50;;;;;;5010735;28;20670;-72
2023/06/06 06:00:35;;;;;;;8.40;5.27;;;17.40;69.20;;;;;;5007667;28;20637;-73
2023/06/06 06:03:01;;;;;;;6.37;4.77;;;17.40;69.20;;;;;;5010483;28;20673;-72
2023/06/06 06:05:28;;;;;;;12.43;5.67;;;17.50;69.10;;;;;;5006942;28;20476;-73
2023/06/06 06:08:01;;;;;;;7.57;5.10;;;17.50;68.90;;;;;;5009806;28;20424;-72
2023/06/06 06:10:35;;;;;;;7.50;5.13;;;17.50;68.90;;;;;;5005871;28;20989;-71
2023/06/06 06:13:02;;;;;;;9.30;5.20;;;17.60;68.60;;;;;;5009698;28;20429;-71
2023/06/06 06:15:32;;;;;;;7.53;5.53;;;17.60;68.60;;;;;;5007924;28;20437;-74
2023/06/06 06:17:59;;;;;;;6.27;4.87;;;17.60;68.80;;;;;;5015569;28;20425;-72
2023/06/06 06:20:24;;;;;;;10.03;5.20;;;17.70;68.80;;;;;;5007391;28;20468;-74
2023/06/06 06:22:50;;;;;;;7.17;4.57;;;17.80;68.60;;;;;;5010013;28;20433;-72
2023/06/06 06:25:16;;;;;;;9.53;5.93;;;18.00;68.30;;;;;;5006181;28;20248;-74
2023/06/06 06:27:43;;;;;;;11.60;5.30;;;18.10;68.00;;;;;;5010542;28;20193;-74
2023/06/06 06:30:10;;;;;;;9.63;5.17;;;18.10;67.50;;;;;;5005858;28;20458;-72
2023/06/06 06:32:37;;;;;;;10.73;5.40;;;18.20;67.50;;;;;;5017737;28;20514;-73
2023/06/06 06:35:04;;;;;;;10.33;5.80;;;18.30;67.20;;;;;;5022897;28;20469;-72
2023/06/06 06:37:30;;;;;;;6.73;4.87;;;18.30;66.90;;;;;;5023244;28;20498;-73
2023/06/06 06:39:57;;;;;;;10.33;5.27;;;18.30;67.00;;;;;;5019143;28;20527;-74
2023/06/06 06:42:23;;;;;;;9.20;5.10;;;18.30;66.90;;;;;;5013785;28;20424;-71
2023/06/06 06:44:49;;;;;;;6.23;5.13;;;18.40;67.00;;;;;;5020869;28;20450;-72
2023/06/06 06:47:15;;;;;;;11.20;5.63;;;18.40;67.20;;;;;;5019104;28;20501;-72
2023/06/06 06:49:41;;;;;;;8.40;5.23;;;18.50;66.90;;;;;;5018941;28;20413;-73
2023/06/06 06:52:10;;;;;;;9.57;5.20;;;18.60;66.60;;;;;;5009527;28;20201;-72
2023/06/06 06:54:45;;;;;;;8.67;5.60;;;18.50;66.60;;;;;;5014828;28;20434;-71
2023/06/06 06:57:11;;;;;;;8.53;5.20;;;18.70;66.60;;;;;;5008601;28;20411;-74
2023/06/06 06:59:37;;;;;;;12.13;5.57;;;18.70;66.40;;;;;;5014079;28;20918;-72
2023/06/06 07:02:02;;;;;;;8.83;5.47;;;18.80;65.80;;;;;;5005651;28;20292;-71
2023/06/06 07:04:28;;;;;;;7.70;4.70;;;18.80;66.40;;;;;;5012524;28;20263;-72
2023/06/06 07:06:55;;;;;;;8.40;6.07;;;18.90;66.30;;;;;;5009565;28;20494;-72
2023/06/06 07:09:21;;;;;;;9.80;5.47;;;18.90;66.30;;;;;;5012916;28;20194;-73
2023/06/06 07:11:46;;;;;;;6.03;4.30;;;19.00;66.00;;;;;;5013123;28;20471;-72
2023/06/06 07:14:12;;;;;;;8.67;5.43;;;19.10;65.60;;;;;;5012291;28;20451;-71
2023/06/06 07:16:37;;;;;;;6.43;4.53;;;19.20;65.60;;;;;;5009557;28;20194;-75
2023/06/06 07:19:03;;;;;;;8.10;5.33;;;19.40;65.10;;;;;;5008427;28;20268;-71
2023/06/06 07:21:29;;;;;;;8.27;4.90;;;19.40;64.50;;;;;;5011838;28;20220;-73
2023/06/06 07:23:55;;;;;;;10.57;5.30;;;19.50;64.50;;;;;;5006826;28;20279;-72
2023/06/06 07:26:21;;;;;;;7.97;4.47;;;19.60;63.80;;;;;;5010859;28;20244;-72
2023/06/06 07:28:47;;;;;;;8.07;5.33;;;19.70;63.80;;;;;;5007566;28;20450;-73
2023/06/06 07:31:14;;;;;;;9.00;5.60;;;19.70;63.20;;;;;;5005066;28;20732;-72
2023/06/06 07:33:40;;;;;;;8.40;5.33;;;19.60;63.50;;;;;;5010914;28;20416;-72
2023/06/06 07:36:07;;;;;;;9.83;5.27;;;19.70;62.90;;;;;;5012342;28;20532;-71
2023/06/06 07:38:32;;;;;;;7.63;5.10;;;19.70;62.60;;;;;;5013774;28;20483;-73
2023/06/06 07:40:58;;;;;;;6.53;4.60;;;19.60;62.80;;;;;;5009525;28;20472;-73
2023/06/06 07:43:24;;;;;;;9.37;5.27;;;19.70;62.80;;;;;;5013954;28;20268;-72
2023/06/06 07:45:50;;;;;;;12.90;5.20;;;19.80;62.30;;;;;;5012537;28;20217;-71
2023/06/06 07:48:15;;;;;;;7.80;5.30;;;19.90;61.90;;;;;;5014547;28;20625;-74
2023/06/06 07:50:41;;;;;;;7.07;4.73;;;20.00;62.20;;;;;;5008522;28;20481;-73
2023/06/06 07:53:07;;;;;;;6.70;4.70;;;19.90;62.20;;;;;;5010789;28;20218;-72
2023/06/06 07:55:32;;;;;;;7.80;4.93;;;20.00;62.20;;;;;;5012078;28;20198;-71
2023/06/06 07:58:00;;;;;;;12.27;4.87;;;20.10;61.90;;;;;;5010244;28;20244;-73
2023/06/06 08:00:26;;;;;;;9.40;4.87;;;20.20;61.00;;;;;;5006543;28;20240;-72
2023/06/06 08:02:51;;;;;;;6.23;4.47;;;20.30;60.40;;;;;;5007917;28;20429;-72
2023/06/06 08:05:18;;;;;;;6.50;4.37;;;20.20;60.30;;;;;;5007812;28;20196;-73
2023/06/06 08:07:44;;;;;;;5.60;3.80;;;20.30;60.10;;;;;;5010958;28;20186;-72
2023/06/06 08:10:11;;;;;;;7.20;4.60;;;20.30;59.30;;;;;;5011037;28;20463;-72
2023/06/06 08:12:37;;;;;;;6.90;4.20;;;20.20;59.70;;;;;;5012075;28;20459;-74
2023/06/06 08:15:04;;;;;;;7.67;4.20;;;20.20;60.10;;;;;;5003572;28;20431;-77
2023/06/06 08:17:29;;;;;;;8.33;4.50;;;20.30;59.60;;;;;;5007232;28;20517;-72
2023/06/06 08:19:55;;;;;;;8.60;4.33;;;20.30;59.60;;;;;;5010058;28;20468;-76
2023/06/06 08:22:21;;;;;;;8.40;5.07;;;20.30;60.00;;;;;;5009313;28;20198;-72
2023/06/06 08:24:46;;;;;;;7.17;4.90;;;20.30;60.40;;;;;;5011506;28;20260;-73
2023/06/06 08:27:12;;;;;;;9.70;4.80;;;20.30;60.60;;;;;;5011679;28;20249;-72
2023/06/06 08:29:38;;;;;;;8.87;5.27;;;20.30;60.90;;;;;;5010173;28;20659;-72
2023/06/06 08:32:04;;;;;;;7.90;4.70;;;20.40;61.00;;;;;;5005527;28;20195;-73
2023/06/06 08:34:30;;;;;;;7.43;4.80;;;20.50;61.00;;;;;;5012476;28;20201;-72
2023/06/06 08:36:56;;;;;;;6.67;3.87;;;20.50;60.40;;;;;;5009390;28;20941;-73
2023/06/06 08:39:21;;;;;;;7.67;4.70;;;20.50;60.60;;;;;;5009259;28;20186;-72
2023/06/06 08:41:57;;;;;;;7.73;4.80;;;20.50;61.00;;;;;;5005494;28;20212;-71
2023/06/06 08:44:24;;;;;;;8.17;5.20;;;20.70;60.60;;;;;;5004922;28;20196;-73
2023/06/06 08:46:51;;;;;;;7.07;4.53;;;20.80;60.30;;;;;;5010210;28;20476;-73
2023/06/06 08:49:18;;;;;;;6.93;4.80;;;20.80;60.10;;;;;;5007046;28;20961;-71
2023/06/06 08:51:46;;;;;;;8.27;4.87;;;20.90;59.70;;;;;;5006247;28;20487;-72
2023/06/06 08:54:12;;;;;;;7.10;4.60;;;21.00;58.90;;;;;;5006812;28;20926;-72
2023/06/06 08:56:42;;;;;;;9.20;5.23;;;21.00;58.80;;;;;;5014116;28;20428;-72
2023/06/06 08:59:10;;;;;;;10.00;5.53;;;21.10;58.90;;;;;;5007729;28;20735;-71
2023/06/06 09:01:37;;;;;;;10.50;5.00;;;21.10;59.50;;;;;;5009205;28;20481;-71
2023/06/06 09:04:04;;;;;;;7.13;4.97;;;21.10;59.50;;;;;;5001619;28;20926;-73
2023/06/06 09:06:56;;;;;;;9.13;5.27;;;21.10;59.20;;;;;;5005566;28;20470;-72
2023/06/06 09:09:22;;;;;;;8.70;5.67;;;20.70;60.60;;;;;;5008552;28;20507;-71
2023/06/06 09:11:48;;;;;;;8.33;4.87;;;20.80;60.60;;;;;;5008154;28;20548;-72
2023/06/06 09:14:14;;;;;;;9.90;6.00;;;20.90;60.30;;;;;;5006958;28;20457;-73
2023/06/06 09:16:39;;;;;;;6.60;4.20;;;21.10;60.00;;;;;;5010828;28;20190;-72
2023/06/06 09:19:08;;;;;;;11.20;5.60;;;21.20;59.70;;;;;;5011776;28;20192;-73
2023/06/06 09:21:33;;;;;;;10.90;5.00;;;21.30;59.10;;;;;;5003825;28;20637;-72
2023/06/06 09:23:59;;;;;;;7.17;4.93;;;21.40;58.10;;;;;;5011653;28;20485;-72
2023/06/06 09:26:27;;;;;;;7.30;5.10;;;21.40;57.60;;;;;;5010054;28;20217;-73
2023/06/06 09:28:55;;;;;;;7.53;4.97;;;21.50;57.70;;;;;;5010010;28;20428;-72
2023/06/06 09:31:30;;;;;;;7.50;4.57;;;21.50;57.20;;;;;;5003909;28;20481;-72
2023/06/06 09:33:57;;;;;;;13.13;5.37;;;21.60;56.60;;;;;;5013133;28;20913;-73
2023/06/06 09:36:27;;;;;;;7.67;5.03;;;21.60;56.20;;;;;;5009782;28;20425;-74
2023/06/06 09:38:58;;;;;;;5.47;4.63;;;21.80;56.00;;;;;;5010999;28;20492;-71
2023/06/06 09:41:27;;;;;;;7.63;5.13;;;21.80;56.10;;;;;;5004538;28;20475;-74
2023/06/06 09:43:52;;;;;;;8.37;5.23;;;22.00;56.60;;;;;;5010606;28;20993;-72
2023/06/06 09:46:18;;;;;;;9.33;4.87;;;21.90;56.10;;;;;;5012872;28;20582;-72
2023/06/06 09:49:03;;;;;;;7.37;5.27;;;21.90;56.40;;;;;;5005818;28;20197;-74
2023/06/06 09:51:30;;;;;;;8.60;5.47;;;22.00;53.60;;;;;;5008808;28;20220;-71
2023/06/06 09:53:58;;;;;;;6.77;5.03;;;21.60;53.20;;;;;;5007965;28;20450;-72
2023/06/06 09:56:24;;;;;;;10.27;5.10;;;21.30;54.20;;;;;;5010595;28;20450;-72
2023/06/06 09:58:55;;;;;;;6.20;4.70;;;21.50;54.40;;;;;;5012393;28;20805;-72
2023/06/06 10:01:32;;;;;;;8.93;5.43;;;21.70;54.10;;;;;;5007626;28;20465;-73
2023/06/06 10:03:58;;;;;;;7.67;4.90;;;21.90;53.20;;;;;;5010195;28;20431;-72
2023/06/06 10:06:26;;;;;;;6.10;4.63;;;22.20;52.60;;;;;;5016463;28;20529;-71
2023/06/06 10:08:56;;;;;;;13.30;5.30;;;22.40;51.60;;;;;;5011265;28;20438;-72
2023/06/06 10:11:22;;;;;;;7.43;5.00;;;22.60;52.00;;;;;;5006871;28;20468;-73
2023/06/06 10:13:51;;;;;;;7.93;5.87;;;22.40;51.20;;;;;;5006706;28;20433;-72
2023/06/06 10:16:19;;;;;;;8.30;5.30;;;22.20;51.80;;;;;;5007372;28;20185;-73
2023/06/06 10:18:46;;;;;;;8.03;4.87;;;22.20;52.50;;;;;;5013834;28;20422;-72
2023/06/06 10:21:15;;;;;;;7.47;4.57;;;22.30;51.40;;;;;;5013856;28;20455;-72
2023/06/06 10:23:41;;;;;;;5.97;4.97;;;22.50;52.10;;;;;;5017385;28;20461;-72
2023/06/06 10:26:13;;;;;;;7.00;5.50;;;23.00;50.60;;;;;;5016951;28;20475;-72
2023/06/06 10:28:47;;;;;;;9.27;6.00;;;22.60;51.20;;;;;;5018694;28;20428;-74
2023/06/06 10:31:16;;;;;;;7.10;5.60;;;22.40;52.40;;;;;;5011921;28;20453;-71
2023/06/06 10:33:49;;;;;;;7.70;5.50;;;22.50;51.30;;;;;;5018516;28;20434;-73
2023/06/06 10:36:17;;;;;;;8.33;5.90;;;23.10;51.00;;;;;;5014008;28;20415;-73
2023/06/06 10:39:20;;;;;;;7.83;5.30;;;23.50;49.90;;;;;;5014969;28;20954;-74
2023/06/06 10:42:10;;;;;;;7.73;5.47;;;24.10;49.30;;;;;;4963296;28;20493;-74
2023/06/06 10:44:56;;;;;;;7.63;5.33;;;23.60;48.60;;;;;;4967339;28;20476;-71
2023/06/06 10:47:23;;;;;;;7.73;5.40;;;23.40;49.30;;;;;;4967770;28;20469;-73
2023/06/06 10:50:07;;;;;;;9.20;6.17;;;22.90;50.30;;;;;;4970760;28;20435;-73
2023/06/06 10:52:40;;;;;;;7.40;5.27;;;23.10;51.20;;;;;;4963251;28;20425;-71
2023/06/06 10:55:14;;;;;;;9.10;6.07;;;23.10;51.00;;;;;;4968457;28;20591;-71
2023/06/06 10:57:50;;;;;;;10.77;5.77;;;23.20;50.20;;;;;;4957111;28;20572;-74
2023/06/06 11:00:16;;;;;;;7.17;5.70;;;23.40;49.90;;;;;;4970615;28;20986;-72
2023/06/06 11:02:44;;;;;;;12.00;5.63;;;23.10;49.90;;;;;;4967820;28;20423;-75
2023/06/06 11:05:10;;;;;;;10.90;5.03;;;23.60;47.80;;;;;;4970952;28;20484;-72
2023/06/06 11:07:36;;;;;;;8.07;5.80;;;23.90;47.10;;;;;;4970223;28;20956;-72
2023/06/06 11:10:02;;;;;;;7.63;5.10;;;24.20;46.30;;;;;;4952325;28;20222;-72
2023/06/06 11:12:28;;;;;;;12.20;5.90;;;24.30;46.70;;;;;;4968171;28;20439;-72
2023/06/06 11:15:04;;;;;;;7.50;5.33;;;24.30;46.30;;;;;;4972665;28;20430;-72
2023/06/06 11:17:53;;;;;;;7.13;5.30;;;24.30;47.10;;;;;;5011176;28;20420;-72
2023/06/06 11:20:23;;;;;;;8.20;5.17;;;23.50;44.10;;;;;;5005296;28;20465;-74
2023/06/06 11:23:01;;;;;;;6.13;4.70;;;23.20;46.30;;;;;;5010424;28;20431;-73
2023/06/06 11:25:37;;;;;;;8.40;5.13;;;23.20;47.30;;;;;;5009037;28;20435;-72
2023/06/06 11:28:04;;;;;;;6.40;5.20;;;23.30;46.90;;;;;;5008332;28;20477;-73
2023/06/06 11:30:31;;;;;;;7.57;5.30;;;23.80;47.10;;;;;;5006882;28;20484;-74
2023/06/06 11:32:58;;;;;;;10.93;6.00;;;23.90;47.40;;;;;;5008377;28;20493;-72
2023/06/06 11:35:24;;;;;;;7.70;4.97;;;24.10;47.80;;;;;;5010081;28;20427;-73
2023/06/06 11:37:50;;;;;;;7.93;5.90;;;24.20;47.70;;;;;;5014427;28;20425;-72
2023/06/06 11:40:16;;;;;;;8.90;6.20;;;24.00;47.40;;;;;;5010640;28;20462;-74
2023/06/06 11:42:43;;;;;;;8.03;5.50;;;24.20;45.80;;;;;;5019367;28;20192;-71
2023/06/06 11:45:15;;;;;;;7.63;5.73;;;24.10;46.70;;;;;;5015369;28;20511;-74
2023/06/06 11:47:42;;;;;;;8.07;5.03;;;24.00;46.60;;;;;;5011991;28;20438;-72
2023/06/06 11:50:08;;;;;;;9.20;5.27;;;23.90;47.50;;;;;;5015649;28;21297;-72
2023/06/06 11:52:50;;;;;;;6.33;4.87;;;24.60;46.30;;;;;;5017253;28;20480;-73
2023/06/06 11:55:17;;;;;;;9.13;5.43;;;24.80;44.70;;;;;;5012986;28;20424;-75
2023/06/06 11:57:43;;;;;;;9.63;6.03;;;24.60;45.70;;;;;;5012436;28;20413;-75
2023/06/06 12:00:15;;;;;;;7.57;5.10;;;23.90;46.30;;;;;;5000766;28;20867;-71
2023/06/06 12:02:41;;;;;;;9.53;4.43;;;23.70;45.70;;;;;;5010758;28;20413;-72
2023/06/06 12:05:21;;;;;;;6.10;4.80;;;23.70;44.30;;;;;;5012154;28;20453;-73
2023/06/06 12:07:48;;;;;;;8.87;4.63;;;23.90;38.30;;;;;;5010101;28;20516;-72
2023/06/06 12:10:22;;;;;;;8.60;5.37;;;23.60;41.40;;;;;;5007436;28;20479;-73
2023/06/06 12:12:48;;;;;;;8.73;5.20;;;23.80;43.70;;;;;;5011467;28;20429;-74
2023/06/06 12:15:14;;;;;;;9.70;5.30;;;24.20;43.40;;;;;;5008523;28;20417;-71
2023/06/06 12:17:40;;;;;;;7.73;5.13;;;23.70;44.30;;;;;;5011748;28;20857;-74
2023/06/06 12:20:06;;;;;;;7.17;5.07;;;24.00;44.60;;;;;;5005821;28;20212;-72
2023/06/06 12:22:33;;;;;;;8.67;5.50;;;24.70;43.90;;;;;;5009183;28;20198;-72
2023/06/06 12:24:59;;;;;;;8.70;4.90;;;24.90;42.40;;;;;;5007997;28;20475;-74
2023/06/06 12:27:26;;;;;;;8.20;5.03;;;25.30;42.00;;;;;;5011607;28;20559;-73
2023/06/06 12:29:54;;;;;;;11.13;5.03;;;25.50;41.90;;;;;;5007269;28;20431;-71
2023/06/06 12:32:23;;;;;;;10.23;5.53;;;24.80;42.60;;;;;;5007212;28;20423;-72
2023/06/06 12:34:59;;;;;;;7.70;5.27;;;24.60;43.40;;;;;;5006391;28;20452;-75
2023/06/06 12:37:35;;;;;;;9.03;5.40;;;24.30;44.10;;;;;;5011833;28;20434;-72
2023/06/06 12:40:07;;;;;;;7.77;5.47;;;23.90;45.30;;;;;;5001820;28;20538;-72
2023/06/06 12:42:33;;;;;;;13.53;6.77;;;24.50;44.60;;;;;;5002432;28;20450;-74
2023/06/06 12:44:59;;;;;;;8.53;5.13;;;24.80;43.50;;;;;;5010620;28;20987;-73
2023/06/06 12:47:24;;;;;;;6.47;5.60;;;24.90;42.80;;;;;;5005087;28;20222;-75